Time;durP1;ratioP1;P1;durP2;ratioP2;P2;SDS_P1;SDS_P2;PMS_P1;PMS_P2;Temp;Humidity;BMP_temperature;BMP_pressure;BME280_temperature;BME280_humidity;BME280_pressure;Samples;Min_cycle;Max_cycle;Signal;HPM_P1;HPM_P2
2021/07/14 00:01:32;;;;;;;;;13.25;11.25;;;;;17.10;73.68;100599.91;4973663;28;45291;-61
2021/07/14 00:03:57;;;;;;;;;10.75;10.75;;;;;17.11;73.83;100603.38;4973425;28;47389;-60
2021/07/14 00:06:23;;;;;;;;;13.50;12.50;;;;;17.11;74.28;100598.91;4973565;28;45354;-60
2021/07/14 00:08:48;;;;;;;;;10.00;10.00;;;;;17.12;74.17;100594.41;4972915;28;60397;-60
2021/07/14 00:11:14;;;;;;;;;16.00;11.75;;;;;17.13;74.36;100590.75;4972752;28;63605;-60
2021/07/14 00:13:58;;;;;;;;;14.25;12.00;;;;;17.13;74.59;100596.91;4973324;28;45429;-60
2021/07/14 00:22:10;;;;;;;;;18.75;16.25;;;;;17.19;75.22;100590.88;4976405;28;45522;-60
2021/07/14 00:24:36;;;;;;;;;19.25;17.00;;;;;17.20;75.24;100589.88;4976295;28;47176;-61
2021/07/14 00:27:04;;;;;;;;;22.50;16.75;;;;;17.21;75.28;100596.00;4976411;28;45386;-60
2021/07/14 00:29:30;;;;;;;;;22.00;19.00;;;;;17.24;75.28;100600.13;4976382;28;45375;-60
2021/07/14 00:31:55;;;;;;;;;19.00;15.50;;;;;17.24;75.23;100602.78;4976212;28;45401;-60
2021/07/14 00:34:21;;;;;;;;;23.00;17.50;;;;;17.25;75.18;100599.13;4975515;28;68352;-60
2021/07/14 00:36:46;;;;;;;;;22.50;19.75;;;;;17.27;75.06;100605.91;4975277;28;69028;-60
2021/07/14 00:39:11;;;;;;;;;23.00;19.25;;;;;17.27;75.11;100608.56;4975939;28;60802;-60
2021/07/14 00:41:37;;;;;;;;;19.00;19.00;;;;;17.26;74.97;100601.59;4976269;28;45427;-60
2021/07/14 00:44:02;;;;;;;;;24.50;21.25;;;;;17.27;75.07;100603.25;4976060;28;45903;-60
2021/07/14 00:46:28;;;;;;;;;23.50;20.75;;;;;17.26;75.30;100606.91;4976128;28;45236;-60
2021/07/14 00:48:57;;;;;;;;;19.50;18.25;;;;;17.26;74.84;100598.13;4975673;28;56841;-60
2021/07/14 00:51:22;;;;;;;;;20.00;17.00;;;;;17.24;75.13;100598.31;4974950;28;45361;-61
2021/07/14 00:53:48;;;;;;;;;20.25;17.50;;;;;17.24;75.02;100593.00;4975854;28;45526;-60
2021/07/14 00:56:14;;;;;;;;;19.00;17.75;;;;;17.23;75.05;100601.97;4974374;28;56100;-61
2021/07/14 00:58:39;;;;;;;;;16.25;15.50;;;;;17.23;74.93;100601.97;4976276;28;45379;-60
2021/07/14 01:01:04;;;;;;;;;16.25;15.50;;;;;17.20;74.75;100605.81;4975321;28;61776;-61
2021/07/14 01:03:31;;;;;;;;;14.50;13.00;;;;;17.18;74.82;100599.00;4975890;28;46035;-60
2021/07/14 01:06:00;;;;;;;;;13.75;13.75;;;;;17.17;74.60;100597.38;4959942;28;45425;-61
2021/07/14 01:08:42;;;;;;;;;22.25;16.50;;;;;17.14;74.79;100609.19;4974941;28;45391;-60
2021/07/14 01:11:09;;;;;;;;;19.00;15.75;;;;;17.14;74.90;100616.31;4958987;28;45318;-59
2021/07/14 01:13:49;;;;;;;;;14.00;12.75;;;;;17.12;74.97;100613.00;4974459;28;49629;-59
2021/07/14 01:16:18;;;;;;;;;18.75;15.25;;;;;17.11;75.01;100614.00;4974597;28;45262;-61
2021/07/14 01:19:00;;;;;;;;;19.75;15.75;;;;;17.11;74.73;100606.03;4974824;28;45360;-60
2021/07/14 01:21:28;;;;;;;;;20.75;14.50;;;;;17.09;74.99;100610.69;4975614;28;45308;-60
2021/07/14 01:24:12;;;;;;;;;19.25;15.25;;;;;17.08;75.21;100603.72;4974452;28;45288;-60
2021/07/14 01:27:06;;;;;;;;;19.75;15.25;;;;;17.07;74.74;100610.88;4975707;28;45881;-60
2021/07/14 01:29:39;;;;;;;;;18.00;15.25;;;;;17.05;74.81;100595.13;4975822;28;45415;-59
2021/07/14 01:32:05;;;;;;;;;15.00;12.75;;;;;17.04;74.98;100597.97;4958788;28;45567;-60
2021/07/14 01:34:30;;;;;;;;;15.75;12.25;;;;;17.04;74.52;100600.63;4959301;28;47924;-60
2021/07/14 01:36:56;;;;;;;;;13.50;12.25;;;;;17.02;74.39;100606.09;4973580;28;64894;-60
2021/07/14 01:39:21;;;;;;;;;17.75;15.25;;;;;17.01;74.83;100599.13;4957349;28;62509;-60
2021/07/14 01:41:49;;;;;;;;;16.00;13.25;;;;;16.99;74.64;100587.88;4974327;28;45597;-61
2021/07/14 01:44:14;;;;;;;;;13.75;12.75;;;;;16.96;74.08;100593.53;4973990;28;45345;-60
2021/07/14 01:46:40;;;;;;;;;16.50;11.25;;;;;16.95;74.35;100583.91;4958016;28;45504;-60
2021/07/14 01:49:12;;;;;;;;;13.00;11.00;;;;;16.91;74.09;100582.59;4974891;28;54923;-60
2021/07/14 01:51:40;;;;;;;;;13.00;10.75;;;;;16.89;73.92;100581.97;4974177;28;45388;-60
2021/07/14 01:54:05;;;;;;;;;11.75;9.25;;;;;16.86;74.28;100575.16;4958015;28;45410;-60
2021/07/14 01:56:33;;;;;;;;;9.00;8.25;;;;;16.84;74.14;100571.84;4973911;28;45323;-59
2021/07/14 01:58:58;;;;;;;;;11.00;10.00;;;;;16.83;74.08;100572.03;4974270;28;45420;-60
2021/07/14 02:01:24;;;;;;;;;9.75;8.75;;;;;16.82;73.82;100578.34;4956972;28;67024;-59
2021/07/14 02:06:20;;;;;;;;;10.00;9.00;;;;;16.77;73.88;100565.59;4974083;28;45384;-60
2021/07/14 02:08:46;;;;;;;;;9.50;8.25;;;;;16.76;73.86;100571.91;4975103;28;45339;-60
2021/07/14 02:11:11;;;;;;;;;9.75;8.75;;;;;16.75;74.09;100575.56;4974221;28;65849;-60
2021/07/14 02:13:37;;;;;;;;;8.25;7.25;;;;;16.73;73.63;100580.22;4973043;28;66375;-61
2021/07/14 02:16:02;;;;;;;;;10.25;7.50;;;;;16.71;73.97;100577.75;4973498;28;51955;-60
2021/07/14 02:18:35;;;;;;;;;8.75;8.00;;;;;16.70;73.70;100580.56;4974535;28;45363;-59
2021/07/14 02:21:00;;;;;;;;;14.75;8.00;;;;;16.69;73.44;100587.72;4974813;28;45324;-60
2021/07/14 02:23:26;;;;;;;;;8.00;8.00;;;;;16.67;73.38;100589.72;4974550;28;50934;-60
2021/07/14 02:25:51;;;;;;;;;8.00;8.00;;;;;16.66;73.25;100582.75;4972734;28;73185;-60
2021/07/14 02:28:17;;;;;;;;;8.00;7.00;;;;;16.65;73.20;100591.72;4974947;28;45386;-60
2021/07/14 02:30:42;;;;;;;;;9.50;9.50;;;;;16.63;73.35;100601.66;4974022;28;63169;-60
2021/07/14 02:33:09;;;;;;;;;10.00;9.25;;;;;16.60;73.28;100602.84;4974761;28;45424;-60
2021/07/14 02:35:37;;;;;;;;;8.25;7.75;;;;;16.59;73.30;100603.03;4973674;28;45355;-60
2021/07/14 02:38:26;;;;;;;;;10.00;7.75;;;;;16.57;73.33;100602.38;4974972;28;45349;-59
2021/07/14 02:41:02;;;;;;;;;9.25;8.00;;;;;16.55;73.27;100609.66;4958111;28;45521;-60
2021/07/14 02:43:28;;;;;;;;;11.00;8.00;;;;;16.56;73.49;100611.31;4975037;28;46191;-61
2021/07/14 02:45:56;;;;;;;;;12.50;9.50;;;;;16.56;73.52;100606.00;4973487;28;45333;-60
2021/07/14 02:48:21;;;;;;;;;11.00;11.00;;;;;16.56;73.44;100604.22;4974800;28;45376;-60
2021/07/14 02:50:47;;;;;;;;;8.75;8.50;;;;;16.55;73.31;100613.16;4973293;28;45245;-60
2021/07/14 02:53:20;;;;;;;;;13.00;9.25;;;;;16.53;73.62;100623.13;4972481;28;68974;-60
2021/07/14 02:55:49;;;;;;;;;9.50;8.50;;;;;16.52;73.48;100624.13;4956960;28;49230;-60
2021/07/14 02:58:14;;;;;;;;;10.50;7.50;;;;;16.52;73.49;100617.97;4957398;28;45389;-60
2021/07/14 03:00:40;;;;;;;;;8.00;8.00;;;;;16.52;73.66;100620.63;4973341;28;70765;-60
2021/07/14 03:03:09;;;;;;;;;10.75;8.50;;;;;16.51;73.31;100613.66;4973170;28;45437;-60
2021/07/14 03:05:34;;;;;;;;;11.00;10.50;;;;;16.50;73.43;100617.31;4974319;28;45807;-60
2021/07/14 03:08:02;;;;;;;;;7.00;6.00;;;;;16.47;73.38;100613.19;4973437;28;45347;-60
2021/07/14 03:10:28;;;;;;;;;11.75;9.50;;;;;16.47;73.64;100614.00;4973148;28;45236;-60
2021/07/14 03:12:55;;;;;;;;;13.00;8.25;;;;;16.47;73.72;100613.19;4974172;28;47085;-60
2021/07/14 03:15:20;;;;;;;;;11.25;9.00;;;;;16.44;73.41;100614.34;4973031;28;45964;-60
2021/07/14 03:17:47;;;;;;;;;10.00;7.25;;;;;16.43;73.62;100612.69;4973088;28;45487;-60
2021/07/14 03:20:14;;;;;;;;;9.00;8.00;;;;;16.43;73.76;100612.69;4972933;28;45403;-59
2021/07/14 03:22:42;;;;;;;;;8.50;7.00;;;;;16.43;73.60;100625.16;4956867;28;45272;-60
2021/07/14 03:25:08;;;;;;;;;11.25;10.75;;;;;16.42;73.66;100626.16;4956749;28;45350;-60
2021/07/14 03:27:33;;;;;;;;;13.75;9.25;;;;;16.40;73.44;100623.69;4956181;28;45341;-60
2021/07/14 03:29:58;;;;;;;;;10.75;8.75;;;;;16.39;73.62;100621.19;4973201;28;67440;-61
2021/07/14 03:32:24;;;;;;;;;7.75;7.00;;;;;16.36;73.81;100622.38;4972209;28;68258;-60
2021/07/14 03:34:51;;;;;;;;;11.00;10.00;;;;;16.34;73.80;100634.97;4972715;28;45352;-60
2021/07/14 03:37:16;;;;;;;;;9.50;8.50;;;;;16.34;73.75;100634.97;4972705;28;46897;-60
2021/07/14 03:39:42;;;;;;;;;13.75;10.50;;;;;16.30;73.69;100629.16;4972713;28;45303;-60
2021/07/14 03:42:13;;;;;;;;;8.50;7.75;;;;;16.29;73.72;100634.66;4970688;28;63034;-60
2021/07/14 03:44:39;;;;;;;;;6.50;6.50;;;;;16.29;73.93;100632.81;4973970;28;45369;-60
2021/07/14 03:47:04;;;;;;;;;7.25;6.00;;;;;16.28;73.78;100641.78;4955670;28;65845;-59
2021/07/14 03:49:30;;;;;;;;;7.50;6.75;;;;;16.28;73.65;100641.78;4956590;28;45444;-60
2021/07/14 03:51:56;;;;;;;;;10.25;6.75;;;;;16.30;73.53;100638.97;4973827;28;75308;-60
2021/07/14 03:54:21;;;;;;;;;7.50;6.50;;;;;16.30;73.63;100638.97;4975728;28;45358;-59
2021/07/14 03:56:47;;;;;;;;;6.00;6.00;;;;;16.30;73.60;100647.72;4974914;28;62264;-60
2021/07/14 03:59:12;;;;;;;;;11.75;7.75;;;;;16.30;73.46;100647.72;4974594;28;70440;-60
2021/07/14 04:01:37;;;;;;;;;11.25;7.00;;;;;16.32;73.31;100650.22;4974822;28;59499;-60
2021/07/14 04:04:04;;;;;;;;;5.00;5.00;;;;;16.30;73.57;100660.97;4974474;28;70781;-61
2021/07/14 04:06:34;;;;;;;;;9.00;6.25;;;;;16.30;73.67;100662.81;4960806;28;45254;-60
2021/07/14 04:09:22;;;;;;;;;7.00;7.00;;;;;16.30;73.56;100663.63;4958954;28;45585;-60
2021/07/14 04:11:50;;;;;;;;;7.50;7.50;;;;;16.30;73.63;100660.16;4976378;28;45357;-59
2021/07/14 04:14:16;;;;;;;;;7.25;5.25;;;;;16.31;73.57;100667.13;4976421;28;45207;-60
2021/07/14 04:16:41;;;;;;;;;6.00;6.00;;;;;16.31;73.50;100667.94;4975635;28;66519;-60
2021/07/14 04:19:06;;;;;;;;;9.00;8.25;;;;;16.32;73.26;100663.47;4975527;28;67207;-60
2021/07/14 04:21:32;;;;;;;;;9.00;5.75;;;;;16.32;73.23;100668.78;4958208;28;59453;-60
2021/07/14 04:23:57;;;;;;;;;6.75;5.25;;;;;16.32;73.42;100659.00;4975446;28;70262;-60
2021/07/14 04:26:24;;;;;;;;;6.25;6.25;;;;;16.32;73.55;100663.47;4976434;28;45276;-61
2021/07/14 04:28:49;;;;;;;;;7.50;6.00;;;;;16.34;73.08;100656.19;4975455;28;70465;-60
2021/07/14 04:31:14;;;;;;;;;7.00;6.00;;;;;16.34;73.18;100656.19;4976083;28;50036;-60
2021/07/14 04:33:41;;;;;;;;;6.75;6.00;;;;;16.34;73.37;100658.84;4976334;28;45603;-60
2021/07/14 04:36:07;;;;;;;;;6.00;6.00;;;;;16.32;73.48;100664.28;4991488;28;45429;-60
2021/07/14 04:38:33;;;;;;;;;5.00;5.00;;;;;16.34;73.37;100666.78;4976351;28;45608;-60
2021/07/14 04:40:58;;;;;;;;;5.00;4.50;;;;;16.36;73.49;100670.09;4975798;28;52217;-60
2021/07/14 04:43:24;;;;;;;;;6.00;5.00;;;;;16.39;73.38;100668.91;4975382;28;65360;-60
2021/07/14 04:45:49;;;;;;;;;8.50;5.75;;;;;16.39;73.33;100660.97;4976056;28;45426;-60
2021/07/14 04:48:14;;;;;;;;;7.25;5.50;;;;;16.40;73.21;100660.81;4975973;28;45359;-60
2021/07/14 04:50:40;;;;;;;;;5.00;4.75;;;;;16.40;73.29;100666.09;4975178;28;67069;-60
2021/07/14 04:53:05;;;;;;;;;6.00;5.00;;;;;16.42;73.18;100664.13;4975146;28;68347;-60
2021/07/14 04:55:30;;;;;;;;;6.00;5.00;;;;;16.45;73.48;100666.41;4975216;28;64261;-60
2021/07/14 04:57:56;;;;;;;;;7.00;6.00;;;;;16.46;73.11;100665.41;4975367;28;64903;-59
2021/07/14 05:00:21;;;;;;;;;6.25;6.00;;;;;16.49;73.33;100674.84;4975169;28;69520;-60
2021/07/14 05:02:46;;;;;;;;;9.00;6.00;;;;;16.50;73.26;100675.66;4974279;28;69477;-59
2021/07/14 05:05:15;;;;;;;;;7.75;6.25;;;;;16.50;72.98;100680.97;4976035;28;45642;-60
2021/07/14 05:07:41;;;;;;;;;8.25;5.00;;;;;16.50;73.06;100676.50;4975970;28;45467;-60
2021/07/14 05:10:07;;;;;;;;;7.00;6.00;;;;;16.50;73.21;100679.16;4975717;28;45384;-60
2021/07/14 05:12:33;;;;;;;;;9.50;5.50;;;;;16.51;73.42;100693.22;4975573;28;45765;-59
2021/07/14 05:14:58;;;;;;;;;5.50;5.50;;;;;16.52;73.25;100686.94;4975768;28;45402;-60
2021/07/14 05:17:23;;;;;;;;;7.25;7.00;;;;;16.50;73.19;100687.13;4975120;28;66106;-60
2021/07/14 05:19:49;;;;;;;;;6.25;5.00;;;;;16.51;73.22;100685.28;4974796;28;69962;-60
2021/07/14 05:22:14;;;;;;;;;8.50;7.00;;;;;16.50;73.43;100687.13;4974678;28;68892;-60
2021/07/14 05:24:40;;;;;;;;;6.25;5.00;;;;;16.50;73.38;100686.28;4975793;28;45524;-59
2021/07/14 05:27:05;;;;;;;;;9.50;7.50;;;;;16.49;73.36;100693.41;4975637;28;45346;-60
2021/07/14 05:29:31;;;;;;;;;10.00;7.75;;;;;16.50;73.59;100696.88;4975600;28;45916;-61
2021/07/14 05:31:56;;;;;;;;;6.75;6.00;;;;;16.50;73.71;100695.06;4975541;28;45323;-60
2021/07/14 05:34:21;;;;;;;;;7.00;6.25;;;;;16.50;73.72;100696.88;4975164;28;52391;-60
2021/07/14 05:36:47;;;;;;;;;5.75;4.50;;;;;16.51;73.73;100701.19;4974638;28;65105;-60
2021/07/14 05:39:12;;;;;;;;;6.00;5.75;;;;;16.51;73.70;100695.88;4974538;28;70781;-60
2021/07/14 05:41:37;;;;;;;;;6.00;6.00;;;;;16.51;73.69;100694.06;4975209;28;47693;-60
2021/07/14 05:44:03;;;;;;;;;5.25;5.25;;;;;16.53;73.77;100702.69;4974753;28;64078;-60
2021/07/14 05:46:29;;;;;;;;;7.00;7.00;;;;;16.53;73.94;100696.53;4975431;28;45170;-60
2021/07/14 05:49:00;;;;;;;;;7.00;6.50;;;;;16.55;73.96;100698.03;4975133;28;52858;-60
2021/07/14 05:51:25;;;;;;;;;8.50;7.75;;;;;16.57;74.16;100692.56;4975444;28;45480;-60
2021/07/14 05:53:51;;;;;;;;;8.50;5.50;;;;;16.58;73.97;100699.50;4974594;28;66186;-60
2021/07/14 05:56:16;;;;;;;;;9.00;7.25;;;;;16.60;73.94;100700.16;4974543;28;66599;-60
2021/07/14 05:58:42;;;;;;;;;10.75;8.00;;;;;16.62;73.88;100700.81;4975178;28;45564;-61
2021/07/14 06:01:09;;;;;;;;;7.50;6.00;;;;;16.62;73.88;100698.16;4975107;28;45350;-61
2021/07/14 06:03:34;;;;;;;;;7.50;6.75;;;;;16.64;73.89;100701.47;4975421;28;45409;-59
2021/07/14 06:06:00;;;;;;;;;10.75;7.25;;;;;16.64;73.20;100704.13;4975233;28;45408;-60
2021/07/14 06:08:25;;;;;;;;;9.00;7.00;;;;;16.65;73.66;100707.63;4975060;28;46000;-60
2021/07/14 06:10:50;;;;;;;;;9.50;7.50;;;;;16.66;73.42;100704.78;4974269;28;60289;-60
2021/07/14 06:13:16;;;;;;;;;7.75;7.50;;;;;16.65;73.43;100699.66;4974477;28;45569;-60
2021/07/14 06:15:41;;;;;;;;;8.50;7.00;;;;;16.65;73.45;100700.47;4973873;28;45780;-60
2021/07/14 06:18:07;;;;;;;;;7.50;7.00;;;;;16.65;73.40;100700.47;4974793;28;45321;-60
2021/07/14 06:20:32;;;;;;;;;7.00;6.00;;;;;16.65;73.56;100707.63;4974387;28;47952;-60
2021/07/14 06:22:57;;;;;;;;;7.25;7.00;;;;;16.65;73.48;100707.63;4974200;28;65015;-60
2021/07/14 06:25:23;;;;;;;;;8.00;7.00;;;;;16.67;73.41;100710.94;4973940;28;69419;-60
2021/07/14 06:27:48;;;;;;;;;6.25;5.00;;;;;16.67;73.49;100717.06;4973876;28;71622;-60
2021/07/14 06:30:14;;;;;;;;;10.00;7.50;;;;;16.69;73.38;100716.91;4973958;28;69608;-60
2021/07/14 06:32:40;;;;;;;;;7.75;7.00;;;;;16.71;73.47;100722.84;4974921;28;45495;-60
2021/07/14 06:35:06;;;;;;;;;7.75;6.00;;;;;16.70;73.30;100729.13;4974854;28;45385;-60
2021/07/14 06:37:32;;;;;;;;;10.75;6.50;;;;;16.71;73.34;100726.31;4974659;28;46064;-60
2021/07/14 06:39:57;;;;;;;;;5.25;5.25;;;;;16.70;73.35;100722.03;4974652;28;45398;-60
2021/07/14 06:42:23;;;;;;;;;7.00;7.00;;;;;16.70;73.23;100729.13;4974911;28;45355;-60
2021/07/14 06:44:48;;;;;;;;;7.75;5.50;;;;;16.68;73.41;100721.38;4974840;28;45321;-60
2021/07/14 06:47:14;;;;;;;;;7.75;5.00;;;;;16.69;73.43;100725.66;4974587;28;45262;-60
2021/07/14 06:49:39;;;;;;;;;7.00;6.00;;;;;16.70;73.29;100723.81;4974013;28;65500;-60
2021/07/14 06:52:05;;;;;;;;;8.50;6.00;;;;;16.71;73.25;100720.19;4974629;28;45338;-60
2021/07/14 06:54:30;;;;;;;;;6.75;5.00;;;;;16.70;73.22;100719.38;4974516;28;45556;-60
2021/07/14 06:56:56;;;;;;;;;6.00;4.75;;;;;16.71;73.51;100718.38;4974377;28;45449;-60
2021/07/14 06:59:21;;;;;;;;;6.00;6.00;;;;;16.72;73.46;100717.38;4974384;28;45371;-60
2021/07/14 07:01:46;;;;;;;;;7.75;4.50;;;;;16.74;73.26;100714.53;4973648;28;67403;-60
2021/07/14 07:04:12;;;;;;;;;3.50;3.50;;;;;16.75;73.28;100716.19;4973793;28;65189;-60
2021/07/14 07:06:37;;;;;;;;;5.00;5.00;;;;;16.77;73.43;100720.34;4973407;28;72309;-60
2021/07/14 07:09:04;;;;;;;;;6.50;5.00;;;;;16.81;73.44;100730.59;4973517;28;68664;-60
2021/07/14 07:11:31;;;;;;;;;4.00;4.00;;;;;16.81;73.16;100739.38;4974520;28;45309;-60
2021/07/14 07:13:56;;;;;;;;;5.25;5.25;;;;;16.84;73.29;100740.88;4974376;28;45604;-60
2021/07/14 07:16:22;;;;;;;;;4.75;4.75;;;;;16.86;73.07;100737.03;4974258;28;46420;-60
2021/07/14 07:18:47;;;;;;;;;3.25;3.25;;;;;16.87;72.99;100732.56;4973354;28;67757;-60
2021/07/14 07:21:13;;;;;;;;;6.75;5.25;;;;;16.86;72.85;100733.56;4973156;28;65748;-60
2021/07/14 07:23:38;;;;;;;;;5.25;4.00;;;;;16.88;72.89;100737.69;4989007;28;45397;-60
2021/07/14 07:26:05;;;;;;;;;4.25;4.25;;;;;16.89;72.85;100733.22;4973400;28;45911;-60
2021/07/14 07:28:35;;;;;;;;;7.00;4.75;;;;;16.91;73.13;100732.03;4973891;28;45953;-60
2021/07/14 07:31:01;;;;;;;;;4.50;3.25;;;;;16.94;73.45;100727.38;4974320;28;45197;-61
2021/07/14 07:33:26;;;;;;;;;4.00;4.00;;;;;16.95;73.36;100732.53;4974121;28;45523;-60
2021/07/14 07:35:52;;;;;;;;;6.00;6.00;;;;;16.97;73.29;100729.72;4973511;28;52259;-60
2021/07/14 07:38:17;;;;;;;;;5.25;4.00;;;;;17.00;73.20;100740.81;4973896;28;45267;-60
2021/07/14 07:40:43;;;;;;;;;3.00;3.00;;;;;17.02;73.06;100738.81;4974023;28;45224;-60
2021/07/14 07:43:08;;;;;;;;;4.25;3.50;;;;;17.03;72.66;100739.66;4973135;28;62922;-60
2021/07/14 07:45:33;;;;;;;;;7.00;4.00;;;;;17.04;72.57;100746.63;4972666;28;70985;-60
2021/07/14 07:47:59;;;;;;;;;4.00;4.00;;;;;17.04;72.49;100744.78;4973017;28;69600;-61
2021/07/14 07:50:24;;;;;;;;;4.75;3.00;;;;;17.04;72.71;100742.13;4973699;28;45776;-60
2021/07/14 07:52:50;;;;;;;;;4.25;3.50;;;;;17.03;72.47;100740.47;4973722;28;45575;-61
2021/07/14 07:55:15;;;;;;;;;3.75;3.75;;;;;17.06;72.49;100747.28;4973139;28;60674;-60
2021/07/14 07:57:42;;;;;;;;;4.00;3.00;;;;;17.06;72.46;100748.09;4973369;28;46038;-61
2021/07/14 08:00:14;;;;;;;;;6.50;5.00;;;;;17.07;71.93;100754.25;4973470;28;45449;-61
2021/07/14 08:02:39;;;;;;;;;4.00;4.00;;;;;17.05;72.34;100757.06;4973668;28;45312;-60
2021/07/14 08:05:06;;;;;;;;;5.25;5.00;;;;;17.07;72.22;100762.19;4973493;28;45298;-60
2021/07/14 08:07:31;;;;;;;;;5.25;4.25;;;;;17.07;72.17;100762.19;4973365;28;45319;-61
2021/07/14 08:09:56;;;;;;;;;5.25;4.00;;;;;17.05;71.92;100759.69;4972438;28;66004;-60
2021/07/14 08:12:22;;;;;;;;;5.00;4.00;;;;;17.02;72.28;100764.53;4973285;28;45613;-60
2021/07/14 08:14:47;;;;;;;;;3.50;3.00;;;;;16.99;72.42;100762.22;4973186;28;45998;-60
2021/07/14 08:17:13;;;;;;;;;5.00;4.00;;;;;16.99;73.01;100772.84;4973001;28;60080;-61
2021/07/14 08:19:38;;;;;;;;;5.75;4.00;;;;;16.98;72.57;100772.00;4973168;28;47146;-59
2021/07/14 08:22:04;;;;;;;;;4.00;4.00;;;;;16.98;72.65;100768.53;4972817;28;45451;-60
2021/07/14 08:24:29;;;;;;;;;6.25;4.50;;;;;16.99;72.27;100765.69;4972145;28;72899;-60
2021/07/14 08:26:54;;;;;;;;;5.00;4.50;;;;;17.01;72.40;100757.59;4970927;28;68979;-60
2021/07/14 08:29:20;;;;;;;;;4.00;4.00;;;;;17.03;71.89;100759.06;4970880;28;60492;-61
2021/07/14 08:31:47;;;;;;;;;5.75;5.75;;;;;17.06;72.25;100765.84;4970526;28;67856;-59
2021/07/14 08:34:12;;;;;;;;;5.50;5.50;;;;;17.06;71.69;100758.69;4971472;28;45667;-60
2021/07/14 08:36:38;;;;;;;;;8.00;5.00;;;;;17.09;70.75;100767.31;4970662;28;65858;-60
2021/07/14 08:39:03;;;;;;;;;4.50;4.25;;;;;17.08;71.09;100773.63;4976198;28;45480;-61
2021/07/14 08:41:29;;;;;;;;;5.00;5.00;;;;;17.08;71.05;100776.28;4973925;28;45395;-60
2021/07/14 08:43:54;;;;;;;;;4.25;4.25;;;;;17.11;71.16;100781.25;4973707;28;70545;-59
2021/07/14 08:46:20;;;;;;;;;5.00;5.00;;;;;17.09;71.18;100776.13;4958504;28;45275;-61
2021/07/14 08:48:45;;;;;;;;;5.25;5.00;;;;;17.10;70.77;100782.25;4974874;28;45529;-60
2021/07/14 08:51:10;;;;;;;;;4.25;4.25;;;;;17.08;70.56;100776.28;4976137;28;45355;-60
2021/07/14 08:53:36;;;;;;;;;6.50;5.50;;;;;17.06;70.96;100777.28;4973567;28;75221;-60
2021/07/14 08:56:02;;;;;;;;;6.00;5.00;;;;;17.05;70.63;100780.94;4974975;28;72307;-61
2021/07/14 08:58:28;;;;;;;;;11.00;6.00;;;;;17.04;70.87;100783.78;4975809;28;45374;-61
2021/07/14 09:00:55;;;;;;;;;7.25;5.00;;;;;17.05;70.80;100794.22;4975050;28;63942;-60
2021/07/14 09:03:20;;;;;;;;;6.50;5.00;;;;;17.04;70.89;100789.91;4975736;28;46171;-61
2021/07/14 09:05:46;;;;;;;;;7.75;5.25;;;;;17.05;70.95;100791.56;4975033;28;69643;-60
2021/07/14 09:08:12;;;;;;;;;8.00;6.50;;;;;17.08;71.14;100790.41;4975608;28;47506;-61
2021/07/14 09:10:39;;;;;;;;;9.00;7.00;;;;;17.10;71.19;100792.88;4975638;28;45581;-61
2021/07/14 09:13:05;;;;;;;;;7.00;6.00;;;;;17.13;70.97;100792.53;4975335;28;51251;-61
2021/07/14 09:15:41;;;;;;;;;6.50;6.00;;;;;17.14;71.01;100796.84;4975593;28;45292;-60
2021/07/14 09:18:07;;;;;;;;;6.25;5.50;;;;;17.18;71.07;100787.53;4975753;28;45319;-60
2021/07/14 09:20:33;;;;;;;;;5.50;5.50;;;;;17.21;71.28;100784.53;4975587;28;45330;-61
2021/07/14 09:23:06;;;;;;;;;7.75;6.00;;;;;17.25;70.89;100782.34;4975332;28;46052;-58
2021/07/14 09:25:59;;;;;;;;;6.75;5.00;;;;;17.32;71.19;100781.50;4975765;28;45268;-59
2021/07/14 09:28:28;;;;;;;;;5.00;4.75;;;;;17.39;71.15;100780.78;4974699;28;45215;-58
2021/07/14 09:30:59;;;;;;;;;3.50;3.50;;;;;17.44;70.64;100778.44;4975496;28;45563;-60
2021/07/14 09:33:24;;;;;;;;;5.00;5.00;;;;;17.49;69.67;100776.06;4975466;28;45333;-60
2021/07/14 09:35:50;;;;;;;;;4.50;4.50;;;;;17.52;69.18;100781.03;4975327;28;46824;-61
2021/07/14 09:38:20;;;;;;;;;6.50;4.75;;;;;17.57;69.44;100785.81;4975751;28;45394;-60
2021/07/14 09:40:51;;;;;;;;;4.25;4.25;;;;;17.60;69.87;100783.63;4974413;28;45447;-61
2021/07/14 09:43:27;;;;;;;;;6.00;4.25;;;;;17.62;69.68;100786.94;4975633;28;45453;-61
2021/07/14 09:46:14;;;;;;;;;6.00;5.00;;;;;17.67;69.05;100790.91;4974211;28;45756;-61
2021/07/14 09:48:43;;;;;;;;;4.00;4.00;;;;;17.70;69.30;100793.19;4975113;28;45365;-61
2021/07/14 09:51:12;;;;;;;;;4.50;4.50;;;;;17.71;69.13;100792.19;4974066;28;45250;-61
2021/07/14 09:53:42;;;;;;;;;5.00;5.00;;;;;17.72;69.20;100793.84;4975340;28;46252;-61
2021/07/14 09:56:14;;;;;;;;;4.50;4.50;;;;;17.75;68.78;100786.34;4974867;28;45219;-60
2021/07/14 09:58:40;;;;;;;;;6.75;6.50;;;;;17.77;68.30;100804.78;4975249;28;45357;-61
2021/07/14 10:01:06;;;;;;;;;10.25;9.00;;;;;17.79;68.41;100798.28;4975306;28;45285;-61
2021/07/14 10:03:34;;;;;;;;;6.75;4.25;;;;;17.79;68.10;100800.13;4975193;28;46452;-57
2021/07/14 10:06:06;;;;;;;;;4.75;2.75;;;;;17.79;68.52;100810.75;4975222;28;45875;-60
2021/07/14 10:08:36;;;;;;;;;4.00;4.00;;;;;17.79;68.51;100808.91;4975278;28;45335;-62
2021/07/14 10:11:13;;;;;;;;;5.75;5.00;;;;;17.79;68.59;100813.41;4975166;28;45535;-57
2021/07/14 10:13:54;;;;;;;;;4.50;4.50;;;;;17.80;68.67;100815.06;4975108;28;46047;-61
2021/07/14 10:16:20;;;;;;;;;5.50;5.00;;;;;17.81;68.75;100819.38;4975116;28;45442;-61
2021/07/14 10:19:08;;;;;;;;;9.75;7.00;;;;;17.82;68.68;100817.53;4975111;28;45462;-61
2021/07/14 10:21:43;;;;;;;;;5.25;5.25;;;;;17.83;68.75;100825.34;4974813;28;45596;-61
2021/07/14 10:24:13;;;;;;;;;6.00;5.75;;;;;17.83;68.30;100827.16;4974808;28;49603;-59
2021/07/14 10:26:40;;;;;;;;;4.25;4.25;;;;;17.86;68.21;100821.47;4975105;28;45916;-60
2021/07/14 10:29:06;;;;;;;;;6.25;5.00;;;;;17.87;68.44;100816.00;4975384;28;45299;-61
2021/07/14 10:31:31;;;;;;;;;3.25;3.00;;;;;17.87;67.79;100821.31;4974855;28;45341;-60
2021/07/14 10:33:57;;;;;;;;;4.00;3.75;;;;;17.86;68.28;100825.00;4974709;28;46028;-61
2021/07/14 10:36:40;;;;;;;;;4.00;4.00;;;;;17.88;68.41;100822.13;4973882;28;70301;-60
2021/07/14 10:39:17;;;;;;;;;3.75;3.25;;;;;17.90;68.14;100823.63;4974976;28;45593;-60
2021/07/14 10:41:42;;;;;;;;;4.75;4.75;;;;;17.91;68.37;100819.13;4974840;28;45755;-60
2021/07/14 10:44:08;;;;;;;;;5.75;5.00;;;;;17.94;68.26;100816.97;4976184;28;46239;-61
2021/07/14 10:46:35;;;;;;;;;6.75;5.75;;;;;17.97;68.57;100822.94;4974984;28;45549;-59
2021/07/14 10:49:01;;;;;;;;;5.00;5.00;;;;;18.00;68.25;100827.91;4974659;28;45359;-61
2021/07/14 10:51:28;;;;;;;;;4.75;4.75;;;;;18.01;68.11;100829.56;4974834;28;45416;-60
2021/07/14 10:53:58;;;;;;;;;4.00;4.00;;;;;18.04;67.57;100831.84;4974420;28;46302;-61
2021/07/14 10:56:35;;;;;;;;;5.50;5.50;;;;;18.08;68.39;100838.47;4973328;28;45820;-61
2021/07/14 10:59:01;;;;;;;;;4.00;4.00;;;;;18.13;68.32;100848.59;4957232;28;45270;-61
2021/07/14 11:01:44;;;;;;;;;4.75;4.75;;;;;18.17;67.89;100833.94;4956271;28;45486;-60
2021/07/14 11:04:19;;;;;;;;;5.00;5.00;;;;;18.21;67.71;100844.00;4974093;28;45468;-60
2021/07/14 11:07:00;;;;;;;;;3.00;3.00;;;;;18.23;67.24;100844.66;4974337;28;45782;-58
2021/07/14 11:09:38;;;;;;;;;7.00;7.00;;;;;18.23;67.14;100836.69;4973368;28;45387;-61
2021/07/14 11:12:09;;;;;;;;;7.00;4.75;;;;;18.26;67.40;100840.00;4974317;28;45344;-61
2021/07/14 11:14:42;;;;;;;;;5.50;5.00;;;;;18.29;67.26;100843.09;4974176;28;46116;-60
2021/07/14 11:17:09;;;;;;;;;5.00;5.00;;;;;18.34;67.41;100846.06;4974317;28;45899;-60
2021/07/14 11:19:51;;;;;;;;;5.75;5.00;;;;;18.41;67.12;100832.03;4973362;28;45344;-61
2021/07/14 11:22:19;;;;;;;;;5.00;5.00;;;;;18.46;66.87;100835.84;4973245;28;45328;-58
2021/07/14 11:24:49;;;;;;;;;5.00;5.00;;;;;18.53;66.93;100839.44;4972784;28;46037;-61
2021/07/14 11:27:26;;;;;;;;;7.00;7.00;;;;;18.58;66.45;100838.88;4975480;28;45311;-60
2021/07/14 11:30:04;;;;;;;;;7.00;5.75;;;;;18.62;66.72;100840.16;4974031;28;45449;-61
2021/07/14 11:32:38;;;;;;;;;6.00;5.25;;;;;18.67;66.16;100832.47;4974062;28;45415;-59